Time;durP1;ratioP1;P1;durP2;ratioP2;P2;SDS_P1;SDS_P2;PMS_P1;PMS_P2;Temp;Humidity;BMP_temperature;BMP_pressure;BME280_temperature;BME280_humidity;BME280_pressure;Samples;Min_cycle;Max_cycle;Signal;HPM_P1;HPM_P2
2022/10/15 00:00:38;;;;;;;14.60;13.20;;;16.80;99.90;;;;;;5056068;28;20485;-69
2022/10/15 00:03:04;;;;;;;16.40;14.90;;;16.80;99.90;;;;;;5054333;28;20508;-69
2022/10/15 00:05:29;;;;;;;15.80;14.25;;;16.80;99.90;;;;;;5055974;28;20577;-69
2022/10/15 00:07:55;;;;;;;16.75;14.48;;;16.70;99.90;;;;;;5056154;28;20036;-69
2022/10/15 00:10:21;;;;;;;16.63;14.45;;;16.80;99.90;;;;;;5055248;28;20382;-68
2022/10/15 00:12:47;;;;;;;14.82;13.43;;;16.80;99.90;;;;;;5050646;28;20090;-69
2022/10/15 00:15:13;;;;;;;17.38;15.55;;;16.70;99.90;;;;;;5043192;28;20029;-69
2022/10/15 00:17:38;;;;;;;16.15;14.55;;;16.70;99.90;;;;;;5041171;28;20026;-69
2022/10/15 00:20:07;;;;;;;18.27;13.60;;;16.80;99.90;;;;;;5035614;28;20108;-69
2022/10/15 00:22:33;;;;;;;15.38;13.85;;;16.80;99.90;;;;;;5041530;28;20025;-68
2022/10/15 00:24:58;;;;;;;15.93;14.32;;;16.80;99.90;;;;;;5054827;28;20025;-69
2022/10/15 00:27:24;;;;;;;14.48;13.02;;;16.80;99.90;;;;;;5055647;28;20021;-69
2022/10/15 00:29:50;;;;;;;14.52;13.13;;;16.70;99.90;;;;;;5055850;28;20021;-69
2022/10/15 00:32:15;;;;;;;14.52;13.00;;;16.80;99.90;;;;;;5039223;28;20021;-69
2022/10/15 00:34:41;;;;;;;15.40;12.55;;;16.70;99.90;;;;;;5055805;28;20033;-68
2022/10/15 00:37:08;;;;;;;15.63;14.13;;;16.70;99.90;;;;;;5055197;28;20055;-69
2022/10/15 00:39:35;;;;;;;14.00;12.68;;;16.70;99.90;;;;;;5054946;28;20123;-68
2022/10/15 00:42:00;;;;;;;15.20;13.63;;;16.80;99.90;;;;;;5053069;28;20028;-69
2022/10/15 00:44:29;;;;;;;16.15;14.55;;;16.80;99.90;;;;;;5055468;28;20032;-69
2022/10/15 00:47:33;;;;;;;13.85;12.55;;;16.80;99.90;;;;;;5053477;28;20021;-68
2022/10/15 00:50:15;;;;;;;14.38;12.98;;;16.80;99.90;;;;;;5035197;28;20092;-68
2022/10/15 00:52:58;;;;;;;14.25;12.85;;;16.70;99.90;;;;;;5043370;28;20025;-69
2022/10/15 00:55:28;;;;;;;17.88;13.80;;;16.80;99.90;;;;;;5038416;28;20072;-68
2022/10/15 00:57:56;;;;;;;15.70;14.30;;;16.70;99.90;;;;;;5034407;28;20029;-69
2022/10/15 01:00:22;;;;;;;16.27;14.32;;;16.70;99.90;;;;;;5035022;28;20030;-69
2022/10/15 01:02:47;;;;;;;15.73;14.02;;;16.70;99.90;;;;;;5035137;28;20029;-68
2022/10/15 01:05:16;;;;;;;13.80;12.45;;;16.70;99.90;;;;;;5035082;28;20034;-68
2022/10/15 01:07:41;;;;;;;15.98;14.48;;;16.70;99.90;;;;;;5050402;28;20113;-69
2022/10/15 01:10:09;;;;;;;14.05;12.63;;;16.70;99.90;;;;;;5030841;28;20461;-68
2022/10/15 01:13:07;;;;;;;13.73;11.73;;;16.70;99.90;;;;;;5034640;28;20056;-69
2022/10/15 01:15:55;;;;;;;15.60;14.00;;;16.70;99.90;;;;;;5044061;28;20025;-69
2022/10/15 01:18:55;;;;;;;13.60;12.20;;;16.70;99.90;;;;;;5054644;28;20086;-69
2022/10/15 01:21:37;;;;;;;16.08;14.45;;;16.70;99.90;;;;;;5053978;28;20115;-69
2022/10/15 01:24:41;;;;;;;16.23;14.00;;;16.70;99.90;;;;;;5040632;28;20549;-69
2022/10/15 01:27:28;;;;;;;15.30;13.02;;;16.70;99.90;;;;;;5022884;28;20359;-69
2022/10/15 01:30:23;;;;;;;12.57;11.48;;;16.60;99.90;;;;;;5054182;28;20394;-68
2022/10/15 01:32:58;;;;;;;15.77;14.07;;;16.70;99.90;;;;;;4993236;28;20056;-69
2022/10/15 01:35:46;;;;;;;14.23;12.68;;;16.70;99.90;;;;;;5018621;28;20038;-69
2022/10/15 01:38:22;;;;;;;14.82;12.80;;;16.70;99.90;;;;;;5026932;28;20119;-67
2022/10/15 01:40:55;;;;;;;14.27;12.88;;;16.70;99.90;;;;;;5033118;28;20025;-69
2022/10/15 01:43:29;;;;;;;14.95;13.50;;;16.70;99.90;;;;;;5033388;28;20025;-69
2022/10/15 01:46:04;;;;;;;13.18;12.02;;;16.60;99.90;;;;;;5045204;28;20035;-67
2022/10/15 01:48:31;;;;;;;14.35;12.98;;;16.70;99.90;;;;;;5053941;28;20074;-67
2022/10/15 01:51:00;;;;;;;14.40;12.90;;;16.70;99.90;;;;;;5054303;28;20113;-68
2022/10/15 01:53:27;;;;;;;13.85;12.45;;;16.70;99.90;;;;;;5047189;28;20554;-69
2022/10/15 01:56:16;;;;;;;16.27;14.68;;;16.70;99.90;;;;;;5034001;28;20030;-68
2022/10/15 01:58:44;;;;;;;14.38;12.43;;;16.60;99.90;;;;;;5034501;28;20486;-68
2022/10/15 02:01:10;;;;;;;15.90;14.32;;;16.60;99.90;;;;;;5024404;28;20489;-69
2022/10/15 02:03:48;;;;;;;15.57;14.07;;;16.60;99.90;;;;;;5033796;28;20061;-67
2022/10/15 02:06:29;;;;;;;15.02;13.45;;;16.60;99.90;;;;;;5033246;28;20083;-68
2022/10/15 02:09:02;;;;;;;16.63;15.02;;;16.60;99.90;;;;;;5033844;28;20109;-69
2022/10/15 02:11:30;;;;;;;14.38;13.07;;;16.60;99.90;;;;;;5033538;28;20211;-69
2022/10/15 02:14:12;;;;;;;15.80;14.27;;;16.60;99.90;;;;;;5052599;28;20552;-69
2022/10/15 02:17:07;;;;;;;16.00;14.40;;;16.60;99.90;;;;;;5053585;28;20095;-69
2022/10/15 02:19:54;;;;;;;15.30;13.90;;;16.60;99.90;;;;;;5047597;28;20046;-69
2022/10/15 02:22:25;;;;;;;19.13;15.75;;;16.50;99.90;;;;;;5050797;28;20031;-69
2022/10/15 02:25:18;;;;;;;16.42;14.73;;;16.50;99.90;;;;;;5053434;28;20067;-68
2022/10/15 02:27:47;;;;;;;16.55;14.38;;;16.50;99.90;;;;;;5018369;28;20043;-69
2022/10/15 02:30:14;;;;;;;16.88;15.27;;;16.50;99.90;;;;;;5053485;28;20052;-69
2022/10/15 02:32:41;;;;;;;16.33;13.43;;;16.40;99.90;;;;;;5040708;28;20494;-69
2022/10/15 02:35:09;;;;;;;14.57;13.07;;;16.50;99.90;;;;;;5038200;28;20409;-69
2022/10/15 02:37:37;;;;;;;16.55;14.82;;;16.40;99.90;;;;;;5053171;28;20028;-69
2022/10/15 02:40:03;;;;;;;16.77;15.13;;;16.40;99.90;;;;;;5053427;28;20036;-69
2022/10/15 02:42:29;;;;;;;17.08;15.48;;;16.40;99.90;;;;;;5049542;28;20029;-69
2022/10/15 02:44:54;;;;;;;15.68;14.23;;;16.40;99.90;;;;;;5053228;28;20017;-69
2022/10/15 02:47:20;;;;;;;16.95;15.30;;;16.40;99.90;;;;;;5053317;28;20028;-69
2022/10/15 02:49:45;;;;;;;16.83;13.88;;;16.40;99.90;;;;;;5053035;28;20044;-69
2022/10/15 02:52:11;;;;;;;15.02;13.48;;;16.40;99.90;;;;;;5051577;28;20512;-67
2022/10/15 02:54:37;;;;;;;16.60;15.00;;;16.30;99.90;;;;;;5052988;28;20078;-68
2022/10/15 02:57:02;;;;;;;15.73;14.13;;;16.30;99.90;;;;;;5052300;28;20029;-68
2022/10/15 02:59:28;;;;;;;16.48;14.88;;;16.30;99.90;;;;;;5052703;28;20043;-69
2022/10/15 03:01:53;;;;;;;16.05;14.40;;;16.30;99.90;;;;;;5051272;28;20420;-68
2022/10/15 03:04:19;;;;;;;16.05;14.32;;;16.30;99.90;;;;;;5032856;28;20033;-67
2022/10/15 03:06:45;;;;;;;15.05;13.68;;;16.40;99.90;;;;;;5033020;28;20111;-68
2022/10/15 03:09:11;;;;;;;8.18;7.38;;;16.30;99.90;;;;;;5050940;28;20151;-68
2022/10/15 03:11:37;;;;;;;15.52;14.13;;;16.40;99.90;;;;;;5051827;28;20146;-69
2022/10/15 03:14:03;;;;;;;16.70;15.10;;;16.40;99.90;;;;;;5038309;28;20033;-68
2022/10/15 03:16:28;;;;;;;14.68;13.38;;;16.40;99.90;;;;;;5029292;28;20418;-68
2022/10/15 03:18:54;;;;;;;14.50;13.20;;;16.40;99.90;;;;;;5024710;28;20057;-69
2022/10/15 03:21:20;;;;;;;10.27;9.27;;;16.40;99.90;;;;;;5012938;28;20022;-69
2022/10/15 03:23:46;;;;;;;13.02;11.75;;;16.40;99.90;;;;;;5013046;28;20034;-68
2022/10/15 03:26:11;;;;;;;12.30;11.02;;;16.30;99.90;;;;;;5044926;28;20040;-69
2022/10/15 03:28:37;;;;;;;16.50;14.90;;;16.40;99.90;;;;;;5052616;28;20021;-68
2022/10/15 03:31:03;;;;;;;16.50;15.00;;;16.40;99.90;;;;;;5052726;28;20025;-69
2022/10/15 03:33:28;;;;;;;15.57;14.07;;;16.30;99.90;;;;;;5044467;28;20029;-69
2022/10/15 03:35:54;;;;;;;15.65;14.10;;;16.30;99.90;;;;;;5032397;28;20026;-69
2022/10/15 03:38:20;;;;;;;14.02;12.73;;;16.30;99.90;;;;;;5032561;28;20061;-69
2022/10/15 03:40:45;;;;;;;12.93;11.63;;;16.30;99.90;;;;;;5044890;28;20033;-69
2022/10/15 03:43:11;;;;;;;17.08;15.35;;;16.40;99.90;;;;;;5049816;28;20071;-69
2022/10/15 03:45:37;;;;;;;11.55;8.82;;;16.40;99.90;;;;;;5052518;28;20029;-68
2022/10/15 03:48:03;;;;;;;10.43;9.32;;;16.40;99.90;;;;;;5051271;28;20144;-68
2022/10/15 03:50:28;;;;;;;18.67;16.80;;;16.40;99.90;;;;;;5051010;28;20033;-68
2022/10/15 03:52:54;;;;;;;17.00;15.38;;;16.30;99.90;;;;;;5052442;28;20474;-68
2022/10/15 03:55:19;;;;;;;12.02;10.90;;;16.30;99.90;;;;;;5050156;28;20029;-68
2022/10/15 03:57:45;;;;;;;16.23;14.48;;;16.30;99.90;;;;;;5052364;28;20025;-66
2022/10/15 04:00:11;;;;;;;18.92;16.95;;;16.30;99.90;;;;;;5047778;28;20086;-68
2022/10/15 04:02:37;;;;;;;21.75;19.48;;;16.30;99.90;;;;;;5052531;28;20039;-67
2022/10/15 04:05:03;;;;;;;20.50;18.27;;;16.30;99.90;;;;;;5052327;28;20474;-68
2022/10/15 04:07:28;;;;;;;22.48;19.15;;;16.30;99.90;;;;;;5052159;28;20098;-68
2022/10/15 04:09:54;;;;;;;20.73;18.52;;;16.20;99.90;;;;;;5051300;28;20082;-68
2022/10/15 04:12:20;;;;;;;10.30;9.02;;;16.30;99.90;;;;;;5037472;28;20033;-68
2022/10/15 04:14:45;;;;;;;17.92;16.10;;;16.30;99.90;;;;;;5032149;28;20025;-67
2022/10/15 04:17:11;;;;;;;11.02;9.93;;;16.30;99.90;;;;;;5030953;28;20026;-68
2022/10/15 04:19:37;;;;;;;11.77;9.85;;;16.30;99.90;;;;;;5032023;28;20034;-68
2022/10/15 04:22:03;;;;;;;5.80;5.30;;;16.30;99.90;;;;;;5031093;28;20907;-67
2022/10/15 04:24:28;;;;;;;17.35;15.55;;;16.40;99.90;;;;;;5034894;28;20111;-66
2022/10/15 04:26:54;;;;;;;25.30;22.05;;;16.30;99.90;;;;;;5043065;28;20026;-68
2022/10/15 04:29:20;;;;;;;28.67;24.58;;;16.30;99.90;;;;;;5034530;28;20101;-68
2022/10/15 04:31:46;;;;;;;13.05;11.68;;;16.20;99.90;;;;;;5035668;28;20033;-67
2022/10/15 04:34:11;;;;;;;19.55;17.13;;;16.30;99.90;;;;;;5046145;28;20075;-67
2022/10/15 04:36:37;;;;;;;17.95;16.08;;;16.30;99.90;;;;;;5055409;28;20074;-67
2022/10/15 04:39:04;;;;;;;22.38;20.08;;;16.20;99.90;;;;;;5055468;28;20040;-67
2022/10/15 04:41:29;;;;;;;24.52;21.85;;;16.20;99.90;;;;;;5055551;28;20036;-67
2022/10/15 04:43:56;;;;;;;18.63;16.70;;;16.20;99.90;;;;;;5055492;28;20021;-67
2022/10/15 04:46:22;;;;;;;23.95;20.80;;;16.30;99.90;;;;;;5055319;28;20044;-68
2022/10/15 04:48:47;;;;;;;19.45;17.55;;;16.20;99.90;;;;;;5040751;28;20111;-67
2022/10/15 04:51:19;;;;;;;15.68;14.02;;;16.20;99.90;;;;;;5035507;28;20683;-68
2022/10/15 04:53:45;;;;;;;22.25;20.02;;;16.20;99.90;;;;;;5035028;28;20025;-67
2022/10/15 04:56:16;;;;;;;19.05;16.98;;;16.20;99.90;;;;;;5035517;28;20052;-70
2022/10/15 04:58:45;;;;;;;21.35;19.25;;;16.10;99.90;;;;;;5035208;28;20029;-68
2022/10/15 05:01:14;;;;;;;20.88;18.85;;;16.20;99.90;;;;;;5027480;28;20026;-67
2022/10/15 05:03:41;;;;;;;19.67;17.75;;;16.20;99.90;;;;;;5021183;28;20030;-67
2022/10/15 05:06:10;;;;;;;19.92;17.88;;;16.20;99.90;;;;;;5032381;28;20088;-67
2022/10/15 05:08:37;;;;;;;17.98;16.17;;;16.20;99.90;;;;;;5032418;28;20069;-67
2022/10/15 05:11:03;;;;;;;18.77;16.92;;;16.20;99.90;;;;;;5036656;28;20029;-67
2022/10/15 05:13:30;;;;;;;17.48;15.73;;;16.20;99.90;;;;;;5034817;28;20036;-68
2022/10/15 05:15:55;;;;;;;17.27;15.57;;;16.20;99.90;;;;;;5034806;28;20083;-68
2022/10/15 05:18:21;;;;;;;17.85;16.15;;;16.20;99.90;;;;;;5034976;28;20114;-68
2022/10/15 05:20:47;;;;;;;20.35;18.25;;;16.20;99.90;;;;;;5034773;28;20021;-68
2022/10/15 05:23:13;;;;;;;14.38;12.98;;;16.20;99.90;;;;;;5034033;28;20030;-67
2022/10/15 05:25:38;;;;;;;20.15;18.10;;;16.20;99.90;;;;;;5038661;28;20438;-68
2022/10/15 05:28:04;;;;;;;19.67;17.73;;;16.20;99.90;;;;;;5051649;28;20450;-68
2022/10/15 05:30:30;;;;;;;11.90;10.70;;;16.20;99.90;;;;;;5052156;28;20056;-68
2022/10/15 05:32:55;;;;;;;17.27;15.70;;;16.30;99.90;;;;;;5032865;28;20500;-64
2022/10/15 05:35:22;;;;;;;18.73;17.00;;;16.20;99.90;;;;;;5029471;28;20060;-63
2022/10/15 05:37:48;;;;;;;18.85;16.95;;;16.10;99.90;;;;;;5040352;28;20024;-67
2022/10/15 05:40:14;;;;;;;21.35;18.85;;;16.20;99.90;;;;;;5036552;28;20033;-66
2022/10/15 05:42:40;;;;;;;23.27;18.23;;;16.20;99.90;;;;;;5038626;28;20033;-67
2022/10/15 05:45:06;;;;;;;20.05;18.05;;;16.20;99.90;;;;;;5031521;28;20525;-66
2022/10/15 05:47:32;;;;;;;18.33;16.50;;;16.20;99.90;;;;;;5029679;28;20387;-68
2022/10/15 05:49:57;;;;;;;18.00;16.20;;;16.10;99.90;;;;;;5030379;28;20028;-68
2022/10/15 05:52:23;;;;;;;17.92;16.23;;;16.10;99.90;;;;;;5032945;28;20064;-67
2022/10/15 05:54:48;;;;;;;20.27;16.95;;;16.10;99.90;;;;;;5030067;28;20112;-68
2022/10/15 05:57:14;;;;;;;17.35;15.65;;;16.10;99.90;;;;;;5032147;28;20046;-68
2022/10/15 05:59:39;;;;;;;18.13;16.27;;;16.10;99.90;;;;;;5048606;28;20037;-68
2022/10/15 06:02:05;;;;;;;18.20;16.33;;;16.10;99.90;;;;;;5033973;28;20025;-68
2022/10/15 06:04:31;;;;;;;18.83;16.77;;;16.10;99.90;;;;;;5034036;28;20021;-67
2022/10/15 06:06:57;;;;;;;18.83;16.92;;;16.10;99.90;;;;;;5050459;28;20028;-69
2022/10/15 06:09:23;;;;;;;19.90;17.48;;;16.10;99.90;;;;;;5053799;28;20485;-68
2022/10/15 06:11:48;;;;;;;18.48;16.60;;;16.10;99.90;;;;;;5053772;28;20032;-68
2022/10/15 06:14:14;;;;;;;18.73;17.02;;;16.10;99.90;;;;;;5053467;28;20021;-68
2022/10/15 06:16:40;;;;;;;18.23;16.40;;;16.10;99.90;;;;;;5053623;28;20036;-68
2022/10/15 06:19:06;;;;;;;17.45;15.73;;;16.10;99.90;;;;;;5050846;28;20033;-68
2022/10/15 06:21:32;;;;;;;16.13;14.52;;;16.00;99.90;;;;;;5039975;28;20068;-68
2022/10/15 06:23:57;;;;;;;17.15;15.45;;;16.10;99.90;;;;;;5033491;28;20749;-68
2022/10/15 06:26:23;;;;;;;16.17;14.48;;;16.00;99.90;;;;;;5033698;28;20021;-68
2022/10/15 06:28:48;;;;;;;16.50;14.80;;;16.00;99.90;;;;;;5033297;28;20021;-68
2022/10/15 06:31:14;;;;;;;16.98;15.18;;;16.00;99.90;;;;;;5033609;28;20490;-68
2022/10/15 06:33:40;;;;;;;18.73;16.02;;;16.00;99.90;;;;;;5036992;28;20533;-68
2022/10/15 06:36:08;;;;;;;15.93;14.23;;;16.00;99.90;;;;;;5044880;28;20467;-68
2022/10/15 06:38:34;;;;;;;17.05;15.13;;;16.00;99.90;;;;;;5033484;28;20095;-68
2022/10/15 06:41:04;;;;;;;13.82;12.45;;;16.00;99.90;;;;;;5033314;28;20516;-68
2022/10/15 06:43:29;;;;;;;14.30;12.32;;;16.00;99.90;;;;;;5033167;28;20033;-68
2022/10/15 06:45:58;;;;;;;13.98;12.38;;;16.00;99.90;;;;;;5033090;28;20021;-68
2022/10/15 06:48:23;;;;;;;12.77;11.52;;;16.00;99.90;;;;;;5041958;28;20473;-68
2022/10/15 06:50:49;;;;;;;13.38;10.95;;;16.00;99.90;;;;;;5052767;28;20036;-66
2022/10/15 06:53:15;;;;;;;12.90;11.30;;;16.00;99.90;;;;;;5053165;28;20021;-68
2022/10/15 06:55:41;;;;;;;12.55;11.27;;;16.00;99.90;;;;;;5052783;28;20462;-68
2022/10/15 06:58:06;;;;;;;11.90;10.70;;;16.00;99.90;;;;;;5052882;28;20036;-66
2022/10/15 07:00:32;;;;;;;11.25;10.05;;;16.00;99.90;;;;;;5052933;28;20094;-67
2022/10/15 07:03:03;;;;;;;11.05;9.95;;;16.00;99.90;;;;;;5039712;28;20025;-66
2022/10/15 07:05:29;;;;;;;11.20;9.60;;;16.00;99.90;;;;;;5032999;28;20100;-67
2022/10/15 07:07:56;;;;;;;11.40;10.23;;;16.00;99.90;;;;;;5032925;28;20056;-68
2022/10/15 07:10:23;;;;;;;13.45;10.77;;;16.00;99.90;;;;;;5035866;28;20029;-67
2022/10/15 07:12:49;;;;;;;11.13;9.80;;;16.10;99.90;;;;;;5052639;28;20056;-67
2022/10/15 07:15:15;;;;;;;11.27;10.18;;;15.90;99.90;;;;;;5052797;28;20067;-67
2022/10/15 07:17:51;;;;;;;12.48;11.05;;;15.80;99.90;;;;;;5035269;28;20026;-67
2022/10/15 07:20:18;;;;;;;11.88;10.30;;;15.80;99.90;;;;;;5032770;28;20108;-68
2022/10/15 07:22:43;;;;;;;11.73;10.55;;;15.80;99.90;;;;;;5033186;28;20513;-67
2022/10/15 07:25:09;;;;;;;11.55;10.38;;;15.70;99.90;;;;;;5052521;28;20033;-67
2022/10/15 07:27:38;;;;;;;12.05;10.73;;;15.70;99.90;;;;;;5049124;28;20021;-67
2022/10/15 07:30:05;;;;;;;6.47;5.88;;;15.70;99.90;;;;;;5034593;28;20021;-67
2022/10/15 07:32:30;;;;;;;9.48;8.45;;;15.90;99.90;;;;;;5051983;28;20025;-67
2022/10/15 07:34:56;;;;;;;9.77;8.65;;;16.00;99.90;;;;;;5052442;28;20032;-66
2022/10/15 07:37:22;;;;;;;10.48;9.43;;;16.00;99.90;;;;;;5052532;28;20056;-67
2022/10/15 07:39:47;;;;;;;11.77;10.02;;;15.90;99.90;;;;;;5052449;28;20037;-67
2022/10/15 07:42:13;;;;;;;15.00;12.30;;;15.80;99.90;;;;;;5052457;28;20056;-67
2022/10/15 07:44:38;;;;;;;19.25;17.05;;;15.70;99.90;;;;;;5045456;28;20029;-66
2022/10/15 07:47:05;;;;;;;19.08;17.08;;;15.80;99.90;;;;;;5025467;28;20115;-67
2022/10/15 07:49:30;;;;;;;18.70;13.48;;;15.90;99.90;;;;;;5031253;28;20026;-66
2022/10/15 07:51:56;;;;;;;16.65;9.73;;;16.00;99.90;;;;;;5038233;28;20025;-67
2022/10/15 07:54:21;;;;;;;9.73;5.45;;;16.10;99.90;;;;;;5046721;28;20032;-68
2022/10/15 07:56:47;;;;;;;9.93;6.82;;;16.10;99.90;;;;;;5032450;28;20048;-68
2022/10/15 07:59:13;;;;;;;11.00;9.55;;;16.20;99.90;;;;;;5028476;28;20037;-66
2022/10/15 08:01:39;;;;;;;11.73;8.95;;;16.20;99.90;;;;;;5036215;28;20104;-67
2022/10/15 08:04:04;;;;;;;10.45;7.90;;;16.20;99.90;;;;;;5031836;28;20045;-68
2022/10/15 08:06:31;;;;;;;8.15;6.68;;;16.20;99.90;;;;;;5034849;28;20026;-68
2022/10/15 08:08:57;;;;;;;9.50;7.53;;;16.30;99.90;;;;;;5044837;28;20020;-68
2022/10/15 08:11:23;;;;;;;6.78;6.07;;;16.30;99.90;;;;;;5055440;28;20029;-67
2022/10/15 08:13:48;;;;;;;7.82;5.20;;;16.30;99.90;;;;;;5049261;28;20060;-68
2022/10/15 08:16:15;;;;;;;7.90;5.82;;;16.30;99.90;;;;;;5036486;28;20072;-68
2022/10/15 08:18:41;;;;;;;10.60;6.80;;;16.30;99.90;;;;;;5035445;28;20379;-68
2022/10/15 08:21:07;;;;;;;7.32;5.60;;;16.30;99.90;;;;;;5034936;28;20022;-68
2022/10/15 08:23:34;;;;;;;7.13;5.70;;;16.30;99.90;;;;;;5035103;28;20025;-68
2022/10/15 08:26:00;;;;;;;7.45;6.45;;;16.30;99.90;;;;;;5044201;28;20024;-67
2022/10/15 08:28:27;;;;;;;6.18;5.35;;;16.40;99.90;;;;;;5041112;28;20112;-68
2022/10/15 08:30:54;;;;;;;5.72;4.90;;;16.30;99.90;;;;;;5032935;28;20053;-68
2022/10/15 08:33:19;;;;;;;7.45;5.63;;;16.40;99.90;;;;;;5041366;28;20412;-68
2022/10/15 08:35:45;;;;;;;7.22;5.85;;;16.40;99.90;;;;;;5039633;28;20060;-67
2022/10/15 08:38:11;;;;;;;6.53;5.35;;;16.40;99.90;;;;;;5042225;28;20117;-68
2022/10/15 08:40:37;;;;;;;5.57;4.97;;;16.40;99.90;;;;;;5038207;28;20115;-68
2022/10/15 08:43:04;;;;;;;7.18;5.22;;;16.40;99.90;;;;;;5055094;28;20543;-67
2022/10/15 08:45:41;;;;;;;6.82;5.35;;;16.40;99.90;;;;;;5055056;28;20086;-67
2022/10/15 08:48:13;;;;;;;6.50;5.20;;;16.40;99.90;;;;;;5055085;28;20021;-67
2022/10/15 08:50:39;;;;;;;;;;;16.40;99.90;;;;;;5055813;28;20060;-68
2022/10/15 08:53:04;;;;;;;7.40;3.78;;;16.40;99.90;;;;;;5044736;28;19916;-67
2022/10/15 08:55:40;;;;;;;5.45;3.88;;;16.40;99.90;;;;;;5043206;28;20048;-67
2022/10/15 08:58:12;;;;;;;6.47;4.65;;;16.40;99.90;;;;;;5048752;28;20120;-68
2022/10/15 09:00:55;;;;;;;5.82;4.80;;;16.40;99.90;;;;;;5039938;28;20021;-67
2022/10/15 09:03:30;;;;;;;11.73;8.82;;;16.40;99.90;;;;;;5042456;28;20055;-67
2022/10/15 09:06:19;;;;;;;5.78;3.50;;;16.50;99.90;;;;;;5038538;28;20502;-67
2022/10/15 09:09:15;;;;;;;3.58;3.22;;;16.50;99.90;;;;;;5034810;28;20021;-68
2022/10/15 09:11:57;;;;;;;4.22;2.97;;;16.50;99.90;;;;;;5028276;28;20091;-68
2022/10/15 09:14:34;;;;;;;6.10;3.30;;;16.50;99.90;;;;;;5032458;28;20048;-68
2022/10/15 09:17:06;;;;;;;4.10;3.70;;;16.50;99.90;;;;;;5032147;28;20028;-68
2022/10/15 09:19:35;;;;;;;3.72;3.00;;;16.50;99.90;;;;;;5034295;28;20103;-68
2022/10/15 09:22:01;;;;;;;3.85;3.30;;;16.60;99.90;;;;;;5033368;28;20079;-68
2022/10/15 09:24:29;;;;;;;4.75;3.13;;;16.60;99.90;;;;;;5048548;28;20071;-66
2022/10/15 09:27:00;;;;;;;3.65;3.03;;;16.60;99.90;;;;;;5040080;28;20059;-67
2022/10/15 09:29:44;;;;;;;2.53;2.22;;;16.60;99.90;;;;;;5032875;28;20048;-68
2022/10/15 09:32:38;;;;;;;5.60;3.30;;;16.60;99.90;;;;;;5034348;28;20360;-67
2022/10/15 09:35:18;;;;;;;2.92;2.50;;;16.60;99.90;;;;;;5032409;28;20480;-68
2022/10/15 09:38:17;;;;;;;4.03;2.90;;;16.60;99.90;;;;;;5031410;28;20386;-67
2022/10/15 09:41:20;;;;;;;3.38;2.65;;;16.70;99.90;;;;;;5051942;28;20470;-68
2022/10/15 09:43:47;;;;;;;;;;;16.60;99.90;;;;;;5033937;28;20030;-67
2022/10/15 09:46:13;;;;;;;4.13;2.47;;;16.70;99.90;;;;;;5048561;28;19931;-67
2022/10/15 09:48:51;;;;;;;3.42;2.22;;;16.60;99.90;;;;;;5054124;28;20470;-67
2022/10/15 09:51:26;;;;;;;3.70;2.35;;;16.70;99.90;;;;;;5036983;28;20037;-67
2022/10/15 09:54:20;;;;;;;4.90;2.33;;;16.70;99.90;;;;;;5034334;28;20526;-67
2022/10/15 09:56:54;;;;;;;2.30;1.88;;;16.70;99.90;;;;;;5033357;28;20026;-67
2022/10/15 09:59:21;;;;;;;2.72;1.88;;;16.70;99.90;;;;;;5043543;28;20068;-67
2022/10/15 10:02:12;;;;;;;2.47;1.90;;;16.70;99.90;;;;;;5040328;28;20032;-67
2022/10/15 10:04:38;;;;;;;2.17;1.42;;;16.80;99.90;;;;;;5048705;28;20489;-67
2022/10/15 10:07:06;;;;;;;2.20;1.67;;;16.80;99.90;;;;;;5037956;28;20076;-67
2022/10/15 10:09:36;;;;;;;2.92;1.65;;;16.80;99.90;;;;;;5029252;28;20029;-67
2022/10/15 10:12:16;;;;;;;4.65;1.88;;;16.80;99.90;;;;;;5037147;28;20075;-67
2022/10/15 10:14:54;;;;;;;2.08;1.30;;;16.80;99.90;;;;;;5038892;28;20017;-67
2022/10/15 10:17:22;;;;;;;4.47;2.33;;;16.80;99.90;;;;;;5034391;28;20056;-68
2022/10/15 10:20:17;;;;;;;3.20;2.15;;;16.90;99.90;;;;;;5034201;28;20382;-68
2022/10/15 10:22:51;;;;;;;2.13;1.70;;;16.90;99.90;;;;;;5032195;28;20025;-67
2022/10/15 10:25:39;;;;;;;2.67;2.47;;;16.90;99.90;;;;;;5036120;28;20115;-68
2022/10/15 10:28:08;;;;;;;5.53;3.55;;;16.90;99.90;;;;;;5032348;28;20025;-68
2022/10/15 10:30:47;;;;;;;10.60;4.47;;;16.90;99.90;;;;;;5035645;28;20490;-68
2022/10/15 10:33:15;;;;;;;9.98;3.72;;;16.90;99.90;;;;;;5042049;28;20033;-68
2022/10/15 10:35:51;;;;;;;11.27;5.03;;;16.90;99.90;;;;;;5051372;28;20112;-67
2022/10/15 10:38:36;;;;;;;12.18;5.30;;;16.90;99.90;;;;;;5036915;28;20078;-67
2022/10/15 10:41:06;;;;;;;15.13;5.90;;;17.00;99.90;;;;;;5041529;28;20029;-68
2022/10/15 10:43:34;;;;;;;15.98;6.10;;;17.00;99.90;;;;;;5041681;28;20100;-67
2022/10/15 10:46:04;;;;;;;17.10;6.43;;;17.00;99.90;;;;;;5031755;28;20091;-69
2022/10/15 10:48:50;;;;;;;18.30;6.60;;;17.00;99.90;;;;;;5036470;28;20113;-68
2022/10/15 10:51:23;;;;;;;11.15;6.00;;;17.10;99.90;;;;;;5036141;28;20049;-68
2022/10/15 10:53:59;;;;;;;15.32;7.10;;;17.10;99.90;;;;;;5036209;28;20026;-68
2022/10/15 10:56:36;;;;;;;14.52;6.28;;;17.10;99.90;;;;;;5029785;28;20024;-68
2022/10/15 10:59:19;;;;;;;15.45;8.00;;;17.10;99.90;;;;;;5036445;28;20045;-67
2022/10/15 11:01:46;;;;;;;16.92;7.50;;;17.20;99.90;;;;;;5030179;28;20048;-68
2022/10/15 11:04:17;;;;;;;17.05;8.27;;;17.20;99.90;;;;;;5046633;28;20040;-68
2022/10/15 11:06:52;;;;;;;16.85;8.00;;;17.20;99.90;;;;;;5037241;28;20024;-68
2022/10/15 11:09:37;;;;;;;11.35;7.57;;;17.20;99.90;;;;;;5038948;28;20029;-68
2022/10/15 11:12:12;;;;;;;15.07;6.50;;;17.20;99.90;;;;;;5033909;28;20025;-68
2022/10/15 11:14:54;;;;;;;9.00;6.90;;;17.20;99.90;;;;;;5033539;28;20032;-68
2022/10/15 11:17:46;;;;;;;13.88;7.28;;;17.20;99.90;;;;;;5034144;28;20108;-68
2022/10/15 11:20:41;;;;;;;12.32;5.63;;;17.30;99.90;;;;;;5032707;28;20032;-68
2022/10/15 11:23:25;;;;;;;9.90;6.75;;;17.30;99.90;;;;;;5034988;28;20063;-68
2022/10/15 11:26:03;;;;;;;10.18;4.40;;;17.30;99.90;;;;;;5046161;28;20043;-68
2022/10/15 11:28:58;;;;;;;9.70;4.65;;;17.30;99.90;;;;;;5035897;28;20524;-68
2022/10/15 11:31:30;;;;;;;9.63;5.10;;;17.30;99.90;;;;;;5032586;28;20112;-68
2022/10/15 11:34:26;;;;;;;10.63;4.80;;;17.40;99.90;;;;;;5043032;28;20038;-68
2022/10/15 11:37:10;;;;;;;7.93;3.65;;;17.30;99.90;;;;;;5052653;28;20029;-68
2022/10/15 11:40:11;;;;;;;8.10;4.03;;;17.40;99.90;;;;;;5062262;28;20041;-68
2022/10/15 11:42:55;;;;;;;6.82;3.10;;;17.40;99.90;;;;;;5032136;28;20136;-68
2022/10/15 11:45:32;;;;;;;8.20;3.47;;;17.40;99.90;;;;;;5039260;28;20030;-68
2022/10/15 11:48:05;;;;;;;8.38;3.90;;;17.40;99.90;;;;;;5038856;28;20036;-68
2022/10/15 11:50:53;;;;;;;7.40;3.08;;;17.40;99.90;;;;;;5030810;28;20375;-64
2022/10/15 11:54:03;;;;;;;8.13;2.97;;;17.50;99.90;;;;;;5036069;28;20030;-68
2022/10/15 11:56:44;;;;;;;4.95;2.42;;;17.50;99.90;;;;;;5033575;28;20390;-68
2022/10/15 11:59:22;;;;;;;3.25;2.13;;;17.50;99.90;;;;;;5045433;28;20037;-68
2022/10/15 12:01:53;;;;;;;4.93;2.45;;;17.60;99.90;;;;;;5038093;28;20482;-68
2022/10/15 12:04:49;;;;;;;4.82;2.10;;;17.60;99.90;;;;;;5056060;28;20104;-68
2022/10/15 12:07:24;;;;;;;6.70;1.95;;;17.70;99.90;;;;;;5036287;28;20190;-67
2022/10/15 12:09:55;;;;;;;4.97;1.60;;;17.70;99.90;;;;;;5028269;28;20488;-68
2022/10/15 12:12:46;;;;;;;7.50;1.67;;;17.60;99.90;;;;;;5030804;28;20026;-68
2022/10/15 12:15:29;;;;;;;5.03;1.77;;;17.70;99.90;;;;;;5033199;28;20044;-68
2022/10/15 12:18:25;;;;;;;4.25;1.45;;;17.70;99.90;;;;;;5027824;28;20138;-67
2022/10/15 12:20:54;;;;;;;6.80;1.30;;;17.70;99.90;;;;;;5029879;28;20099;-67
2022/10/15 12:23:40;;;;;;;2.55;1.63;;;17.70;99.90;;;;;;5026605;28;20124;-68
2022/10/15 12:26:24;;;;;;;4.50;1.52;;;17.80;99.90;;;;;;5028175;28;20040;-67
2022/10/15 12:28:52;;;;;;;4.20;1.33;;;17.80;99.90;;;;;;5026134;28;20605;-67
2022/10/15 12:31:19;;;;;;;4.68;1.15;;;17.80;99.90;;;;;;5023351;28;20102;-67
2022/10/15 12:33:50;;;;;;;3.65;0.95;;;17.80;99.90;;;;;;5031892;28;20530;-66
2022/10/15 12:36:27;;;;;;;5.18;1.00;;;17.80;99.90;;;;;;5026420;28;20021;-68
2022/10/15 12:38:55;;;;;;;3.53;1.05;;;17.80;99.90;;;;;;5031607;28;20041;-68
2022/10/15 12:41:33;;;;;;;3.38;0.95;;;17.90;99.90;;;;;;5032675;28;20029;-68
2022/10/15 12:44:07;;;;;;;1.90;0.70;;;17.90;99.90;;;;;;5029558;28;20037;-68
2022/10/15 12:46:38;;;;;;;3.45;0.60;;;17.90;99.90;;;;;;5026883;28;20017;-67
2022/10/15 12:49:25;;;;;;;4.78;0.88;;;17.90;99.90;;;;;;5027357;28;20116;-67
2022/10/15 12:51:56;;;;;;;2.90;0.30;;;17.90;99.90;;;;;;5031484;28;20065;-67
2022/10/15 12:54:43;;;;;;;1.67;0.60;;;17.90;99.90;;;;;;5032722;28;20100;-68
2022/10/15 12:57:44;;;;;;;4.95;0.80;;;18.00;99.90;;;;;;5031085;28;20033;-67